sensor_id;sensor_type;location;lat;lon;timestamp;P1;durP1;ratioP1;P2;durP2;ratioP2
17145;SDS011;8688;54.444;18.444;2023-07-13T00:01:15;6.47;;;3.75;;
17145;SDS011;8688;54.444;18.444;2023-07-13T00:03:43;5.30;;;3.55;;
17145;SDS011;8688;54.444;18.444;2023-07-13T00:06:11;5.82;;;3.53;;
17145;SDS011;8688;54.444;18.444;2023-07-13T00:08:39;6.55;;;3.65;;
17145;SDS011;8688;54.444;18.444;2023-07-13T00:11:06;5.40;;;3.28;;
17145;SDS011;8688;54.444;18.444;2023-07-13T00:13:35;6.15;;;3.80;;
17145;SDS011;8688;54.444;18.444;2023-07-13T00:16:06;13.25;;;3.70;;
17145;SDS011;8688;54.444;18.444;2023-07-13T00:18:34;7.03;;;3.95;;
17145;SDS011;8688;54.444;18.444;2023-07-13T00:21:03;8.40;;;4.00;;
17145;SDS011;8688;54.444;18.444;2023-07-13T00:23:31;7.80;;;3.85;;
17145;SDS011;8688;54.444;18.444;2023-07-13T00:25:59;8.65;;;3.80;;
17145;SDS011;8688;54.444;18.444;2023-07-13T00:28:27;7.88;;;3.92;;
17145;SDS011;8688;54.444;18.444;2023-07-13T00:30:54;4.85;;;3.42;;
17145;SDS011;8688;54.444;18.444;2023-07-13T00:33:23;6.63;;;4.07;;
17145;SDS011;8688;54.444;18.444;2023-07-13T00:35:51;8.00;;;4.05;;
17145;SDS011;8688;54.444;18.444;2023-07-13T00:38:20;5.47;;;3.42;;
17145;SDS011;8688;54.444;18.444;2023-07-13T00:40:48;8.45;;;3.83;;
17145;SDS011;8688;54.444;18.444;2023-07-13T00:43:17;6.00;;;3.40;;
17145;SDS011;8688;54.444;18.444;2023-07-13T00:48:44;7.78;;;3.80;;
17145;SDS011;8688;54.444;18.444;2023-07-13T00:51:14;5.63;;;3.35;;
17145;SDS011;8688;54.444;18.444;2023-07-13T00:53:44;7.00;;;3.97;;
17145;SDS011;8688;54.444;18.444;2023-07-13T00:56:12;5.78;;;3.65;;
17145;SDS011;8688;54.444;18.444;2023-07-13T00:58:40;8.18;;;3.95;;
17145;SDS011;8688;54.444;18.444;2023-07-13T01:01:07;7.53;;;4.10;;
17145;SDS011;8688;54.444;18.444;2023-07-13T01:03:35;6.80;;;3.55;;
17145;SDS011;8688;54.444;18.444;2023-07-13T01:06:04;6.13;;;4.05;;
17145;SDS011;8688;54.444;18.444;2023-07-13T01:08:32;7.38;;;3.55;;
17145;SDS011;8688;54.444;18.444;2023-07-13T01:11:00;6.97;;;3.90;;
17145;SDS011;8688;54.444;18.444;2023-07-13T01:13:27;6.18;;;3.60;;
17145;SDS011;8688;54.444;18.444;2023-07-13T01:15:55;5.50;;;3.60;;
17145;SDS011;8688;54.444;18.444;2023-07-13T01:18:25;7.13;;;4.00;;
17145;SDS011;8688;54.444;18.444;2023-07-13T01:20:56;5.85;;;4.20;;
17145;SDS011;8688;54.444;18.444;2023-07-13T01:23:26;8.05;;;4.60;;
17145;SDS011;8688;54.444;18.444;2023-07-13T01:25:54;8.80;;;4.40;;
17145;SDS011;8688;54.444;18.444;2023-07-13T01:28:22;9.23;;;4.25;;
17145;SDS011;8688;54.444;18.444;2023-07-13T01:30:52;5.97;;;4.47;;
17145;SDS011;8688;54.444;18.444;2023-07-13T01:33:20;7.90;;;4.65;;
17145;SDS011;8688;54.444;18.444;2023-07-13T01:35:48;7.55;;;4.63;;
17145;SDS011;8688;54.444;18.444;2023-07-13T01:38:17;6.95;;;4.30;;
17145;SDS011;8688;54.444;18.444;2023-07-13T01:40:46;8.43;;;4.72;;
17145;SDS011;8688;54.444;18.444;2023-07-13T01:43:13;7.93;;;4.30;;
17145;SDS011;8688;54.444;18.444;2023-07-13T01:45:41;11.57;;;4.80;;
17145;SDS011;8688;54.444;18.444;2023-07-13T01:48:09;7.70;;;4.53;;
17145;SDS011;8688;54.444;18.444;2023-07-13T01:50:37;8.15;;;4.22;;
17145;SDS011;8688;54.444;18.444;2023-07-13T01:53:05;9.35;;;4.53;;
17145;SDS011;8688;54.444;18.444;2023-07-13T01:55:34;10.60;;;4.30;;
17145;SDS011;8688;54.444;18.444;2023-07-13T01:58:02;6.63;;;3.95;;
17145;SDS011;8688;54.444;18.444;2023-07-13T02:00:30;8.20;;;4.35;;
17145;SDS011;8688;54.444;18.444;2023-07-13T02:02:58;10.23;;;4.30;;
17145;SDS011;8688;54.444;18.444;2023-07-13T02:05:25;8.02;;;4.30;;
17145;SDS011;8688;54.444;18.444;2023-07-13T02:07:52;9.48;;;4.20;;
17145;SDS011;8688;54.444;18.444;2023-07-13T02:10:20;7.82;;;4.30;;
17145;SDS011;8688;54.444;18.444;2023-07-13T02:12:50;12.18;;;4.70;;
17145;SDS011;8688;54.444;18.444;2023-07-13T02:15:18;6.28;;;3.95;;
17145;SDS011;8688;54.444;18.444;2023-07-13T02:17:46;8.25;;;4.40;;
17145;SDS011;8688;54.444;18.444;2023-07-13T02:20:13;11.57;;;4.60;;
17145;SDS011;8688;54.444;18.444;2023-07-13T02:22:40;8.80;;;4.32;;
17145;SDS011;8688;54.444;18.444;2023-07-13T02:25:08;12.43;;;4.30;;
17145;SDS011;8688;54.444;18.444;2023-07-13T02:27:36;9.90;;;4.65;;
17145;SDS011;8688;54.444;18.444;2023-07-13T02:30:06;7.22;;;4.38;;
17145;SDS011;8688;54.444;18.444;2023-07-13T02:32:34;7.50;;;4.35;;
17145;SDS011;8688;54.444;18.444;2023-07-13T02:35:01;10.20;;;4.30;;
17145;SDS011;8688;54.444;18.444;2023-07-13T02:37:29;8.18;;;4.18;;
17145;SDS011;8688;54.444;18.444;2023-07-13T02:39:57;8.30;;;4.22;;
17145;SDS011;8688;54.444;18.444;2023-07-13T02:42:24;7.88;;;4.18;;
17145;SDS011;8688;54.444;18.444;2023-07-13T02:44:52;8.23;;;4.55;;
17145;SDS011;8688;54.444;18.444;2023-07-13T02:47:21;8.07;;;4.38;;
17145;SDS011;8688;54.444;18.444;2023-07-13T02:49:48;5.95;;;4.03;;
17145;SDS011;8688;54.444;18.444;2023-07-13T02:52:16;9.48;;;4.28;;
17145;SDS011;8688;54.444;18.444;2023-07-13T02:54:43;7.50;;;4.28;;
17145;SDS011;8688;54.444;18.444;2023-07-13T02:57:11;9.40;;;4.72;;
17145;SDS011;8688;54.444;18.444;2023-07-13T02:59:38;8.75;;;4.38;;
17145;SDS011;8688;54.444;18.444;2023-07-13T03:02:05;8.45;;;5.00;;
17145;SDS011;8688;54.444;18.444;2023-07-13T03:04:35;10.05;;;4.85;;
17145;SDS011;8688;54.444;18.444;2023-07-13T03:07:02;7.53;;;4.75;;
17145;SDS011;8688;54.444;18.444;2023-07-13T03:09:30;8.40;;;4.80;;
17145;SDS011;8688;54.444;18.444;2023-07-13T03:11:59;8.40;;;4.80;;
17145;SDS011;8688;54.444;18.444;2023-07-13T03:14:27;7.95;;;4.40;;
17145;SDS011;8688;54.444;18.444;2023-07-13T03:16:55;7.60;;;4.90;;
17145;SDS011;8688;54.444;18.444;2023-07-13T03:19:22;8.35;;;4.40;;
17145;SDS011;8688;54.444;18.444;2023-07-13T03:21:51;8.98;;;4.90;;
17145;SDS011;8688;54.444;18.444;2023-07-13T03:24:19;9.95;;;4.63;;
17145;SDS011;8688;54.444;18.444;2023-07-13T03:26:48;7.63;;;4.25;;
17145;SDS011;8688;54.444;18.444;2023-07-13T03:29:16;10.10;;;4.53;;
17145;SDS011;8688;54.444;18.444;2023-07-13T03:31:43;9.15;;;4.40;;
17145;SDS011;8688;54.444;18.444;2023-07-13T03:34:10;11.48;;;4.85;;
17145;SDS011;8688;54.444;18.444;2023-07-13T03:36:38;8.18;;;4.35;;
17145;SDS011;8688;54.444;18.444;2023-07-13T03:39:08;8.55;;;4.40;;
17145;SDS011;8688;54.444;18.444;2023-07-13T03:41:36;9.25;;;4.35;;
17145;SDS011;8688;54.444;18.444;2023-07-13T03:44:03;12.90;;;4.60;;
17145;SDS011;8688;54.444;18.444;2023-07-13T03:46:31;8.25;;;4.90;;
17145;SDS011;8688;54.444;18.444;2023-07-13T03:48:59;7.72;;;4.63;;
17145;SDS011;8688;54.444;18.444;2023-07-13T03:51:28;7.80;;;4.13;;
17145;SDS011;8688;54.444;18.444;2023-07-13T03:53:56;10.52;;;4.70;;
17145;SDS011;8688;54.444;18.444;2023-07-13T03:56:25;13.73;;;5.25;;
17145;SDS011;8688;54.444;18.444;2023-07-13T03:58:52;9.60;;;4.53;;
17145;SDS011;8688;54.444;18.444;2023-07-13T04:01:20;10.57;;;4.43;;
17145;SDS011;8688;54.444;18.444;2023-07-13T04:03:50;10.52;;;4.70;;
17145;SDS011;8688;54.444;18.444;2023-07-13T04:06:18;12.52;;;4.93;;
17145;SDS011;8688;54.444;18.444;2023-07-13T04:08:48;8.85;;;4.30;;
17145;SDS011;8688;54.444;18.444;2023-07-13T04:11:16;11.63;;;4.40;;
17145;SDS011;8688;54.444;18.444;2023-07-13T04:13:46;12.90;;;4.47;;
17145;SDS011;8688;54.444;18.444;2023-07-13T04:16:14;13.98;;;4.63;;
17145;SDS011;8688;54.444;18.444;2023-07-13T04:18:42;8.15;;;4.20;;
17145;SDS011;8688;54.444;18.444;2023-07-13T04:21:11;9.50;;;4.22;;
17145;SDS011;8688;54.444;18.444;2023-07-13T04:23:39;9.20;;;3.95;;
17145;SDS011;8688;54.444;18.444;2023-07-13T04:26:07;11.70;;;4.13;;
17145;SDS011;8688;54.444;18.444;2023-07-13T04:28:35;8.52;;;4.05;;
17145;SDS011;8688;54.444;18.444;2023-07-13T04:31:04;9.57;;;4.03;;
17145;SDS011;8688;54.444;18.444;2023-07-13T04:33:31;10.93;;;4.50;;
17145;SDS011;8688;54.444;18.444;2023-07-13T04:35:59;8.15;;;3.70;;
17145;SDS011;8688;54.444;18.444;2023-07-13T04:38:28;8.02;;;3.75;;
17145;SDS011;8688;54.444;18.444;2023-07-13T04:40:59;10.88;;;3.75;;
17145;SDS011;8688;54.444;18.444;2023-07-13T04:43:28;9.30;;;4.07;;
17145;SDS011;8688;54.444;18.444;2023-07-13T04:45:57;9.93;;;4.10;;
17145;SDS011;8688;54.444;18.444;2023-07-13T04:48:31;11.55;;;3.97;;
17145;SDS011;8688;54.444;18.444;2023-07-13T04:50:59;11.43;;;3.58;;
17145;SDS011;8688;54.444;18.444;2023-07-13T04:53:27;7.95;;;3.45;;
17145;SDS011;8688;54.444;18.444;2023-07-13T04:55:55;8.95;;;3.50;;
17145;SDS011;8688;54.444;18.444;2023-07-13T04:58:24;6.47;;;3.47;;
17145;SDS011;8688;54.444;18.444;2023-07-13T05:00:52;8.05;;;3.42;;
17145;SDS011;8688;54.444;18.444;2023-07-13T05:03:20;9.05;;;3.45;;
17145;SDS011;8688;54.444;18.444;2023-07-13T05:05:55;9.45;;;3.40;;
17145;SDS011;8688;54.444;18.444;2023-07-13T05:08:24;7.00;;;3.30;;
17145;SDS011;8688;54.444;18.444;2023-07-13T05:13:21;7.55;;;3.25;;
17145;SDS011;8688;54.444;18.444;2023-07-13T05:15:55;8.27;;;3.00;;
17145;SDS011;8688;54.444;18.444;2023-07-13T05:18:23;9.70;;;3.03;;
17145;SDS011;8688;54.444;18.444;2023-07-13T05:20:59;6.40;;;2.58;;
17145;SDS011;8688;54.444;18.444;2023-07-13T05:23:28;6.70;;;2.70;;
17145;SDS011;8688;54.444;18.444;2023-07-13T05:25:55;9.32;;;2.88;;
17145;SDS011;8688;54.444;18.444;2023-07-13T05:28:23;9.00;;;2.92;;
17145;SDS011;8688;54.444;18.444;2023-07-13T05:30:51;6.03;;;2.08;;
17145;SDS011;8688;54.444;18.444;2023-07-13T05:33:19;6.05;;;2.58;;
17145;SDS011;8688;54.444;18.444;2023-07-13T05:35:47;6.45;;;2.47;;
17145;SDS011;8688;54.444;18.444;2023-07-13T05:38:16;6.07;;;2.47;;
17145;SDS011;8688;54.444;18.444;2023-07-13T05:40:43;7.75;;;2.72;;
17145;SDS011;8688;54.444;18.444;2023-07-13T05:43:21;5.28;;;2.65;;
17145;SDS011;8688;54.444;18.444;2023-07-13T05:45:50;10.55;;;2.60;;
17145;SDS011;8688;54.444;18.444;2023-07-13T05:48:19;12.23;;;2.97;;
17145;SDS011;8688;54.444;18.444;2023-07-13T05:50:46;7.15;;;2.58;;
17145;SDS011;8688;54.444;18.444;2023-07-13T05:53:16;6.15;;;2.63;;
17145;SDS011;8688;54.444;18.444;2023-07-13T05:55:43;6.22;;;2.50;;
17145;SDS011;8688;54.444;18.444;2023-07-13T05:58:20;5.60;;;2.30;;
17145;SDS011;8688;54.444;18.444;2023-07-13T06:00:48;4.88;;;2.25;;
17145;SDS011;8688;54.444;18.444;2023-07-13T06:03:15;4.90;;;2.20;;
17145;SDS011;8688;54.444;18.444;2023-07-13T06:05:43;7.35;;;2.65;;
17145;SDS011;8688;54.444;18.444;2023-07-13T06:08:10;9.88;;;2.60;;
17145;SDS011;8688;54.444;18.444;2023-07-13T06:10:39;4.47;;;2.30;;
17145;SDS011;8688;54.444;18.444;2023-07-13T06:13:06;6.68;;;2.55;;
17145;SDS011;8688;54.444;18.444;2023-07-13T06:15:34;7.88;;;2.42;;
17145;SDS011;8688;54.444;18.444;2023-07-13T06:18:01;7.50;;;2.40;;
17145;SDS011;8688;54.444;18.444;2023-07-13T06:20:30;8.77;;;2.30;;
17145;SDS011;8688;54.444;18.444;2023-07-13T06:23:00;7.88;;;2.28;;
17145;SDS011;8688;54.444;18.444;2023-07-13T06:28:05;4.30;;;1.95;;
17145;SDS011;8688;54.444;18.444;2023-07-13T06:30:33;7.32;;;2.10;;
17145;SDS011;8688;54.444;18.444;2023-07-13T06:33:00;4.50;;;2.10;;
17145;SDS011;8688;54.444;18.444;2023-07-13T06:35:28;6.68;;;1.90;;
17145;SDS011;8688;54.444;18.444;2023-07-13T06:37:55;7.30;;;2.67;;
17145;SDS011;8688;54.444;18.444;2023-07-13T06:40:22;4.68;;;2.00;;
17145;SDS011;8688;54.444;18.444;2023-07-13T06:42:50;3.58;;;1.90;;
17145;SDS011;8688;54.444;18.444;2023-07-13T06:45:19;6.18;;;2.40;;
17145;SDS011;8688;54.444;18.444;2023-07-13T06:47:46;7.13;;;2.00;;
17145;SDS011;8688;54.444;18.444;2023-07-13T06:50:14;7.30;;;2.28;;
17145;SDS011;8688;54.444;18.444;2023-07-13T06:52:42;5.88;;;2.10;;
17145;SDS011;8688;54.444;18.444;2023-07-13T06:55:09;6.53;;;1.80;;
17145;SDS011;8688;54.444;18.444;2023-07-13T06:57:36;7.30;;;2.03;;
17145;SDS011;8688;54.444;18.444;2023-07-13T07:02:33;6.68;;;1.83;;
17145;SDS011;8688;54.444;18.444;2023-07-13T07:05:01;4.32;;;1.80;;
17145;SDS011;8688;54.444;18.444;2023-07-13T07:07:28;5.07;;;1.90;;
17145;SDS011;8688;54.444;18.444;2023-07-13T07:09:56;6.20;;;1.50;;
17145;SDS011;8688;54.444;18.444;2023-07-13T07:12:23;5.65;;;1.77;;
17145;SDS011;8688;54.444;18.444;2023-07-13T07:14:51;3.35;;;1.50;;
17145;SDS011;8688;54.444;18.444;2023-07-13T07:17:18;4.15;;;1.50;;
17145;SDS011;8688;54.444;18.444;2023-07-13T07:19:47;4.07;;;1.40;;
17145;SDS011;8688;54.444;18.444;2023-07-13T07:22:15;3.85;;;1.40;;
17145;SDS011;8688;54.444;18.444;2023-07-13T07:24:42;7.03;;;1.88;;
17145;SDS011;8688;54.444;18.444;2023-07-13T07:27:10;3.47;;;1.60;;
17145;SDS011;8688;54.444;18.444;2023-07-13T07:29:37;6.80;;;1.58;;
17145;SDS011;8688;54.444;18.444;2023-07-13T07:32:05;8.85;;;1.67;;
17145;SDS011;8688;54.444;18.444;2023-07-13T07:34:33;5.07;;;1.52;;
17145;SDS011;8688;54.444;18.444;2023-07-13T07:37:02;7.25;;;1.52;;
17145;SDS011;8688;54.444;18.444;2023-07-13T07:39:29;4.40;;;1.60;;
17145;SDS011;8688;54.444;18.444;2023-07-13T07:41:57;6.05;;;1.73;;
17145;SDS011;8688;54.444;18.444;2023-07-13T07:44:25;6.07;;;1.80;;
17145;SDS011;8688;54.444;18.444;2023-07-13T07:46:53;3.95;;;1.65;;
17145;SDS011;8688;54.444;18.444;2023-07-13T07:49:21;5.75;;;1.70;;
17145;SDS011;8688;54.444;18.444;2023-07-13T07:51:48;3.50;;;1.50;;
17145;SDS011;8688;54.444;18.444;2023-07-13T07:54:17;5.30;;;1.60;;
17145;SDS011;8688;54.444;18.444;2023-07-13T07:56:45;4.20;;;1.67;;
17145;SDS011;8688;54.444;18.444;2023-07-13T07:59:12;4.15;;;1.52;;
17145;SDS011;8688;54.444;18.444;2023-07-13T08:01:40;2.72;;;1.40;;
17145;SDS011;8688;54.444;18.444;2023-07-13T08:04:08;3.58;;;1.48;;
17145;SDS011;8688;54.444;18.444;2023-07-13T08:06:36;7.13;;;1.67;;
17145;SDS011;8688;54.444;18.444;2023-07-13T08:09:03;3.70;;;1.30;;
17145;SDS011;8688;54.444;18.444;2023-07-13T08:11:32;5.88;;;1.90;;
17145;SDS011;8688;54.444;18.444;2023-07-13T08:14:00;6.68;;;1.58;;
17145;SDS011;8688;54.444;18.444;2023-07-13T08:16:27;3.92;;;1.50;;
17145;SDS011;8688;54.444;18.444;2023-07-13T08:18:55;2.75;;;1.48;;
17145;SDS011;8688;54.444;18.444;2023-07-13T08:21:22;3.40;;;1.40;;
17145;SDS011;8688;54.444;18.444;2023-07-13T08:23:50;4.35;;;1.70;;
17145;SDS011;8688;54.444;18.444;2023-07-13T08:26:17;3.63;;;1.30;;
17145;SDS011;8688;54.444;18.444;2023-07-13T08:28:46;7.18;;;1.75;;
17145;SDS011;8688;54.444;18.444;2023-07-13T08:31:14;5.43;;;1.60;;
17145;SDS011;8688;54.444;18.444;2023-07-13T08:33:41;2.60;;;1.40;;
17145;SDS011;8688;54.444;18.444;2023-07-13T08:36:09;2.53;;;1.13;;
17145;SDS011;8688;54.444;18.444;2023-07-13T08:38:36;5.63;;;1.60;;
17145;SDS011;8688;54.444;18.444;2023-07-13T08:41:09;4.55;;;1.73;;
17145;SDS011;8688;54.444;18.444;2023-07-13T08:43:38;2.30;;;1.17;;
17145;SDS011;8688;54.444;18.444;2023-07-13T08:46:12;5.03;;;1.70;;
17145;SDS011;8688;54.444;18.444;2023-07-13T08:48:44;7.30;;;1.88;;
17145;SDS011;8688;54.444;18.444;2023-07-13T08:51:19;7.57;;;1.60;;
17145;SDS011;8688;54.444;18.444;2023-07-13T08:53:57;3.85;;;1.58;;
17145;SDS011;8688;54.444;18.444;2023-07-13T08:56:27;4.78;;;1.33;;
17145;SDS011;8688;54.444;18.444;2023-07-13T08:58:57;2.85;;;1.55;;
17145;SDS011;8688;54.444;18.444;2023-07-13T09:01:30;4.07;;;1.38;;
17145;SDS011;8688;54.444;18.444;2023-07-13T09:04:04;3.83;;;1.63;;
17145;SDS011;8688;54.444;18.444;2023-07-13T09:06:47;6.60;;;1.30;;
17145;SDS011;8688;54.444;18.444;2023-07-13T09:09:24;7.55;;;1.60;;
17145;SDS011;8688;54.444;18.444;2023-07-13T09:12:01;4.45;;;1.50;;
17145;SDS011;8688;54.444;18.444;2023-07-13T09:14:42;5.28;;;1.63;;
17145;SDS011;8688;54.444;18.444;2023-07-13T09:17:14;5.32;;;1.50;;
17145;SDS011;8688;54.444;18.444;2023-07-13T09:19:46;3.65;;;1.60;;
17145;SDS011;8688;54.444;18.444;2023-07-13T09:22:17;3.30;;;2.10;;
17145;SDS011;8688;54.444;18.444;2023-07-13T09:24:50;4.28;;;1.77;;
17145;SDS011;8688;54.444;18.444;2023-07-13T09:27:26;4.03;;;1.52;;
17145;SDS011;8688;54.444;18.444;2023-07-13T09:32:52;5.57;;;1.90;;
17145;SDS011;8688;54.444;18.444;2023-07-13T09:35:21;8.20;;;1.45;;
17145;SDS011;8688;54.444;18.444;2023-07-13T09:37:56;5.13;;;2.08;;
17145;SDS011;8688;54.444;18.444;2023-07-13T09:40:28;4.15;;;1.60;;
17145;SDS011;8688;54.444;18.444;2023-07-13T09:43:03;5.80;;;1.55;;
17145;SDS011;8688;54.444;18.444;2023-07-13T09:45:33;3.38;;;1.45;;
17145;SDS011;8688;54.444;18.444;2023-07-13T09:48:05;3.35;;;1.27;;
17145;SDS011;8688;54.444;18.444;2023-07-13T09:50:37;3.85;;;1.48;;
17145;SDS011;8688;54.444;18.444;2023-07-13T09:53:09;2.90;;;1.40;;
17145;SDS011;8688;54.444;18.444;2023-07-13T09:55:39;4.43;;;1.40;;
17145;SDS011;8688;54.444;18.444;2023-07-13T09:58:09;4.65;;;1.70;;
17145;SDS011;8688;54.444;18.444;2023-07-13T10:00:38;4.93;;;1.77;;
17145;SDS011;8688;54.444;18.444;2023-07-13T10:03:18;7.85;;;2.10;;
17145;SDS011;8688;54.444;18.444;2023-07-13T10:05:48;6.85;;;2.38;;
17145;SDS011;8688;54.444;18.444;2023-07-13T10:08:17;5.85;;;2.40;;
17145;SDS011;8688;54.444;18.444;2023-07-13T10:10:51;6.32;;;2.10;;
17145;SDS011;8688;54.444;18.444;2023-07-13T10:13:28;12.10;;;1.90;;
17145;SDS011;8688;54.444;18.444;2023-07-13T10:15:59;3.83;;;2.00;;
17145;SDS011;8688;54.444;18.444;2023-07-13T10:18:29;5.43;;;1.88;;
17145;SDS011;8688;54.444;18.444;2023-07-13T10:21:09;6.50;;;1.90;;
17145;SDS011;8688;54.444;18.444;2023-07-13T10:23:41;3.92;;;2.20;;
17145;SDS011;8688;54.444;18.444;2023-07-13T10:26:11;4.15;;;1.85;;
17145;SDS011;8688;54.444;18.444;2023-07-13T10:28:44;5.65;;;2.20;;
17145;SDS011;8688;54.444;18.444;2023-07-13T10:31:14;4.55;;;1.70;;
17145;SDS011;8688;54.444;18.444;2023-07-13T10:33:45;6.30;;;1.92;;
17145;SDS011;8688;54.444;18.444;2023-07-13T10:36:14;4.10;;;1.90;;
17145;SDS011;8688;54.444;18.444;2023-07-13T10:38:47;3.78;;;1.50;;
17145;SDS011;8688;54.444;18.444;2023-07-13T10:41:18;3.80;;;1.58;;
17145;SDS011;8688;54.444;18.444;2023-07-13T10:43:49;1.58;;;1.42;;
17145;SDS011;8688;54.444;18.444;2023-07-13T10:46:21;5.57;;;1.80;;
17145;SDS011;8688;54.444;18.444;2023-07-13T10:48:54;3.65;;;1.70;;
17145;SDS011;8688;54.444;18.444;2023-07-13T10:51:25;4.28;;;1.70;;
17145;SDS011;8688;54.444;18.444;2023-07-13T10:56:43;7.82;;;1.90;;
17145;SDS011;8688;54.444;18.444;2023-07-13T10:59:14;5.50;;;1.80;;
17145;SDS011;8688;54.444;18.444;2023-07-13T11:01:50;3.03;;;1.40;;
17145;SDS011;8688;54.444;18.444;2023-07-13T11:04:22;2.35;;;1.42;;
17145;SDS011;8688;54.444;18.444;2023-07-13T11:09:31;2.85;;;1.52;;
17145;SDS011;8688;54.444;18.444;2023-07-13T11:12:06;2.92;;;1.30;;
17145;SDS011;8688;54.444;18.444;2023-07-13T11:14:42;4.93;;;1.75;;
17145;SDS011;8688;54.444;18.444;2023-07-13T11:20:18;5.82;;;1.50;;
17145;SDS011;8688;54.444;18.444;2023-07-13T11:22:50;2.38;;;1.25;;
17145;SDS011;8688;54.444;18.444;2023-07-13T11:25:21;2.38;;;1.40;;
17145;SDS011;8688;54.444;18.444;2023-07-13T11:28:04;1.75;;;1.10;;
17145;SDS011;8688;54.444;18.444;2023-07-13T11:30:47;1.65;;;1.15;;
17145;SDS011;8688;54.444;18.444;2023-07-13T11:33:18;2.47;;;1.35;;
17145;SDS011;8688;54.444;18.444;2023-07-13T11:35:50;4.38;;;1.30;;
17145;SDS011;8688;54.444;18.444;2023-07-13T11:38:27;3.55;;;1.33;;
17145;SDS011;8688;54.444;18.444;2023-07-13T11:40:58;1.88;;;1.20;;
17145;SDS011;8688;54.444;18.444;2023-07-13T11:43:30;3.53;;;1.70;;
17145;SDS011;8688;54.444;18.444;2023-07-13T11:45:59;1.95;;;1.13;;
17145;SDS011;8688;54.444;18.444;2023-07-13T11:48:39;2.05;;;1.20;;
17145;SDS011;8688;54.444;18.444;2023-07-13T11:51:10;3.25;;;1.48;;
17145;SDS011;8688;54.444;18.444;2023-07-13T11:53:47;3.22;;;1.45;;
17145;SDS011;8688;54.444;18.444;2023-07-13T11:56:16;4.88;;;1.50;;
17145;SDS011;8688;54.444;18.444;2023-07-13T11:58:47;5.88;;;1.80;;
17145;SDS011;8688;54.444;18.444;2023-07-13T12:01:17;4.40;;;1.40;;
17145;SDS011;8688;54.444;18.444;2023-07-13T12:03:47;3.55;;;1.40;;
17145;SDS011;8688;54.444;18.444;2023-07-13T12:06:26;5.20;;;1.30;;
17145;SDS011;8688;54.444;18.444;2023-07-13T12:08:58;6.35;;;1.42;;
17145;SDS011;8688;54.444;18.444;2023-07-13T12:11:29;4.90;;;1.63;;
17145;SDS011;8688;54.444;18.444;2023-07-13T12:13:57;3.72;;;1.40;;
17145;SDS011;8688;54.444;18.444;2023-07-13T12:16:26;4.97;;;1.60;;
17145;SDS011;8688;54.444;18.444;2023-07-13T12:18:58;4.32;;;1.48;;
17145;SDS011;8688;54.444;18.444;2023-07-13T12:21:32;4.93;;;1.90;;
17145;SDS011;8688;54.444;18.444;2023-07-13T12:24:01;6.07;;;1.80;;
17145;SDS011;8688;54.444;18.444;2023-07-13T12:26:29;2.13;;;1.40;;
17145;SDS011;8688;54.444;18.444;2023-07-13T12:28:59;3.88;;;1.50;;
17145;SDS011;8688;54.444;18.444;2023-07-13T12:31:33;3.78;;;1.48;;
17145;SDS011;8688;54.444;18.444;2023-07-13T12:34:06;2.72;;;1.30;;
17145;SDS011;8688;54.444;18.444;2023-07-13T12:36:39;3.88;;;1.08;;
17145;SDS011;8688;54.444;18.444;2023-07-13T12:39:14;4.38;;;1.52;;
17145;SDS011;8688;54.444;18.444;2023-07-13T12:41:43;2.75;;;1.20;;
17145;SDS011;8688;54.444;18.444;2023-07-13T12:44:12;2.10;;;1.20;;
17145;SDS011;8688;54.444;18.444;2023-07-13T12:46:51;4.28;;;1.30;;
17145;SDS011;8688;54.444;18.444;2023-07-13T12:49:23;3.17;;;1.30;;
17145;SDS011;8688;54.444;18.444;2023-07-13T12:51:59;4.15;;;1.15;;
17145;SDS011;8688;54.444;18.444;2023-07-13T12:54:29;4.20;;;1.38;;
17145;SDS011;8688;54.444;18.444;2023-07-13T12:57:04;4.18;;;1.40;;
17145;SDS011;8688;54.444;18.444;2023-07-13T12:59:37;4.30;;;1.42;;
17145;SDS011;8688;54.444;18.444;2023-07-13T13:02:16;3.80;;;1.77;;
17145;SDS011;8688;54.444;18.444;2023-07-13T13:04:53;2.58;;;1.23;;
17145;SDS011;8688;54.444;18.444;2023-07-13T13:07:29;4.30;;;1.50;;
17145;SDS011;8688;54.444;18.444;2023-07-13T13:09:57;4.00;;;1.20;;
17145;SDS011;8688;54.444;18.444;2023-07-13T13:12:26;3.28;;;1.35;;
17145;SDS011;8688;54.444;18.444;2023-07-13T13:14:54;4.95;;;1.20;;
17145;SDS011;8688;54.444;18.444;2023-07-13T13:17:26;3.60;;;1.20;;
17145;SDS011;8688;54.444;18.444;2023-07-13T13:19:57;3.20;;;1.20;;
17145;SDS011;8688;54.444;18.444;2023-07-13T13:22:27;2.70;;;1.20;;
17145;SDS011;8688;54.444;18.444;2023-07-13T13:24:54;2.00;;;1.08;;
17145;SDS011;8688;54.444;18.444;2023-07-13T13:27:22;3.10;;;1.30;;
17145;SDS011;8688;54.444;18.444;2023-07-13T13:29:50;4.32;;;1.40;;
17145;SDS011;8688;54.444;18.444;2023-07-13T13:32:18;4.75;;;1.60;;
17145;SDS011;8688;54.444;18.444;2023-07-13T13:34:46;2.50;;;1.40;;
17145;SDS011;8688;54.444;18.444;2023-07-13T13:37:17;4.47;;;1.45;;
17145;SDS011;8688;54.444;18.444;2023-07-13T13:39:48;2.83;;;1.25;;
17145;SDS011;8688;54.444;18.444;2023-07-13T13:42:17;2.75;;;1.20;;
17145;SDS011;8688;54.444;18.444;2023-07-13T13:44:46;5.15;;;1.15;;
17145;SDS011;8688;54.444;18.444;2023-07-13T13:47:19;4.55;;;1.38;;
17145;SDS011;8688;54.444;18.444;2023-07-13T13:49:54;2.83;;;1.13;;
17145;SDS011;8688;54.444;18.444;2023-07-13T13:52:23;5.00;;;1.50;;
17145;SDS011;8688;54.444;18.444;2023-07-13T13:54:52;3.08;;;1.20;;
17145;SDS011;8688;54.444;18.444;2023-07-13T13:57:22;2.47;;;1.17;;
17145;SDS011;8688;54.444;18.444;2023-07-13T13:59:51;2.78;;;1.10;;
17145;SDS011;8688;54.444;18.444;2023-07-13T14:02:23;3.53;;;1.30;;
17145;SDS011;8688;54.444;18.444;2023-07-13T14:04:54;2.58;;;1.20;;
17145;SDS011;8688;54.444;18.444;2023-07-13T14:07:24;2.40;;;1.30;;
17145;SDS011;8688;54.444;18.444;2023-07-13T14:09:55;4.75;;;1.20;;
17145;SDS011;8688;54.444;18.444;2023-07-13T14:12:24;4.75;;;1.02;;
17145;SDS011;8688;54.444;18.444;2023-07-13T14:14:54;3.65;;;1.05;;
17145;SDS011;8688;54.444;18.444;2023-07-13T14:17:22;8.23;;;1.45;;
17145;SDS011;8688;54.444;18.444;2023-07-13T14:19:52;4.45;;;1.10;;
17145;SDS011;8688;54.444;18.444;2023-07-13T14:22:22;2.10;;;1.02;;
17145;SDS011;8688;54.444;18.444;2023-07-13T14:24:52;2.13;;;1.00;;
17145;SDS011;8688;54.444;18.444;2023-07-13T14:27:24;3.00;;;1.10;;
17145;SDS011;8688;54.444;18.444;2023-07-13T14:29:51;4.45;;;1.10;;
17145;SDS011;8688;54.444;18.444;2023-07-13T14:32:19;3.75;;;1.10;;
17145;SDS011;8688;54.444;18.444;2023-07-13T14:34:47;2.00;;;1.00;;
17145;SDS011;8688;54.444;18.444;2023-07-13T14:37:14;6.13;;;1.27;;
17145;SDS011;8688;54.444;18.444;2023-07-13T14:39:43;2.55;;;1.00;;
17145;SDS011;8688;54.444;18.444;2023-07-13T14:42:16;3.53;;;1.10;;
17145;SDS011;8688;54.444;18.444;2023-07-13T14:44:43;4.13;;;1.05;;
17145;SDS011;8688;54.444;18.444;2023-07-13T14:47:11;2.15;;;1.00;;
17145;SDS011;8688;54.444;18.444;2023-07-13T14:49:40;3.50;;;1.15;;
17145;SDS011;8688;54.444;18.444;2023-07-13T14:52:17;3.10;;;0.95;;
17145;SDS011;8688;54.444;18.444;2023-07-13T14:54:47;5.38;;;1.27;;
17145;SDS011;8688;54.444;18.444;2023-07-13T14:57:18;3.83;;;1.20;;
17145;SDS011;8688;54.444;18.444;2023-07-13T14:59:49;4.68;;;1.33;;
17145;SDS011;8688;54.444;18.444;2023-07-13T15:02:29;3.67;;;1.30;;
17145;SDS011;8688;54.444;18.444;2023-07-13T15:05:01;3.15;;;1.02;;
17145;SDS011;8688;54.444;18.444;2023-07-13T15:07:39;2.17;;;1.08;;
17145;SDS011;8688;54.444;18.444;2023-07-13T15:10:17;3.00;;;1.05;;
17145;SDS011;8688;54.444;18.444;2023-07-13T15:12:48;2.28;;;1.00;;
17145;SDS011;8688;54.444;18.444;2023-07-13T15:15:17;2.08;;;0.95;;
17145;SDS011;8688;54.444;18.444;2023-07-13T15:17:46;2.80;;;1.20;;
17145;SDS011;8688;54.444;18.444;2023-07-13T15:20:32;2.40;;;1.13;;
17145;SDS011;8688;54.444;18.444;2023-07-13T15:23:01;3.38;;;1.10;;